Flight Track Log - Related Links

Times and Time Zones

All times are in EDT time to prevent confusion due to time zone crossing. See the SKW5476 flight status page for this flight to view local times or setup timezone preferences in your user account.

Time Position Orientation Groundspeed Altitude Reporting Facility
EDT Latitude Longitude Course Direction KTS MPH feet Rate Location/Type
Sat 04:39:27 PM 37.6692 -122.3681 North 163 188 1,800  Level Oakland Center
Sat 04:40:28 PM 37.7311 -122.3594 North 178 205 3,600 1,820 Climbing Oakland Center
Sat 04:41:29 PM 37.7814 -122.3781 344° North 182 209 5,500 1,512 Climbing Oakland Center
Sat 04:42:31 PM 37.8344 -122.3794 359° North 190 219 6,700 1,317 Climbing Oakland Center
Sat 04:43:00 PM 37.9641 -122.3667 North  Level FlightAware Approximate
Sat 04:43:32 PM 37.8911 -122.3794 360° North 201 231 8,200  Level Oakland Center
Sat 04:44:00 PM 38.0307 -122.3667 North  Level FlightAware Approximate
Sat 04:44:33 PM 37.9475 -122.3833 357° North 204 235 9,600  Level Oakland Center
Sat 04:45:34 PM 38.0047 -122.3792 North 208 239 11,000 1,415 Climbing Oakland Center
Sat 04:46:36 PM 38.0628 -122.3689 North 212 244 12,500 1,561 Climbing Oakland Center
Sat 04:47:37 PM 38.1325 -122.3575 North 212 244 14,200 1,475 Climbing Oakland Center
Sat 04:48:38 PM 38.1911 -122.3486 North 213 245 15,500 1,230 Climbing Oakland Center
Sat 04:49:39 PM 38.2475 -122.3394 North 207 238 16,700 1,122 Climbing Oakland Center
Sat 04:50:41 PM 38.3078 -122.3303 North 216 249 17,800 1,317 Climbing Oakland Center
Sat 04:51:42 PM 38.3683 -122.3214 North 220 253 19,400 1,279 Climbing Oakland Center
Sat 04:52:43 PM 38.4289 -122.3103 North 222 255 20,400 934 Climbing Oakland Center
Sat 04:53:44 PM 38.4917 -122.3014 North 226 260 21,300 934 Climbing Oakland Center
Sat 04:54:45 PM 38.5553 -122.2917 North 230 265 22,300 927 Climbing Oakland Center
Sat 04:55:47 PM 38.6172 -122.2814 North 226 260 23,200 829 Climbing Oakland Center
Sat 04:56:48 PM 38.6906 -122.2706 North 237 273 24,000 393 Climbing Oakland Center
Sat 04:57:49 PM 38.7592 -122.2600 North 246 283 24,000  Level Oakland Center
Sat 04:58:50 PM 38.8292 -122.2489 North 251 289 24,000  Level Oakland Center
Sat 04:59:52 PM 38.8986 -122.2369 North 250 288 24,000  Level Oakland Center
Sat 05:00:53 PM 38.9667 -122.2261 North 246 283 24,000  Level Oakland Center
Sat 05:01:54 PM 39.0356 -122.2150 North 248 285 24,000  Level Oakland Center
Sat 05:02:55 PM 39.1042 -122.2033 North 248 285 24,000  Level Oakland Center
Sat 05:03:56 PM 39.1731 -122.1933 North 249 287 24,000  Level Oakland Center
Sat 05:04:58 PM 39.2553 -122.1781 North 248 285 24,000  Level Oakland Center
Sat 05:05:59 PM 39.3244 -122.1678 North 248 285 24,000  Level Oakland Center
Sat 05:07:00 PM 39.3933 -122.1561 North 249 287 24,000  Level Oakland Center
Sat 05:08:01 PM 39.4631 -122.1456 North 250 288 24,000  Level Oakland Center
Sat 05:09:02 PM 39.5247 -122.1342 North 252 290 24,000  Level Oakland Center
Sat 05:10:03 PM 39.6086 -122.1217 North 253 291 24,000  Level Oakland Center
Sat 05:11:05 PM 39.6783 -122.1092 North 254 292 24,000  Level Oakland Center
Sat 05:12:06 PM 39.7478 -122.0981 North 253 291 24,000  Level Oakland Center
Sat 05:13:07 PM 39.8167 -122.0881 North 250 288 24,000  Level Oakland Center
Sat 05:14:08 PM 39.8867 -122.0758 North 253 291 24,000  Level Oakland Center
Sat 05:15:09 PM 39.9564 -122.0642 North 254 292 24,000  Level Oakland Center
Sat 05:16:10 PM 40.0256 -122.0522 North 253 291 24,000  Level Oakland Center
Sat 05:17:11 PM 40.0936 -122.0417 North 250 288 24,000  Level Oakland Center
Sat 05:18:12 PM 40.1747 -122.0264 North 249 287 24,000  Level Oakland Center
Sat 05:19:13 PM 40.2419 -122.0153 North 247 284 24,000  Level Oakland Center
Sat 05:20:14 PM 40.3072 -122.0058 North 242 278 24,000  Level Oakland Center
Sat 05:21:15 PM 40.3719 -121.9950 North 238 274 24,000  Level Oakland Center
Sat 05:22:17 PM 40.4364 -121.9842 North 236 272 24,000  Level Oakland Center
Sat 05:23:18 PM 40.5017 -121.9725 North 237 273 24,000  Level Oakland Center
Sat 05:24:19 PM 40.5667 -121.9619 North 236 272 24,000  Level Oakland Center
Sat 05:25:20 PM 40.6311 -121.9519 North 234 269 24,000  Level Oakland Center
Sat 05:26:21 PM 40.6933 -121.9406 North 229 264 24,000  Level Oakland Center
Sat 05:27:22 PM 40.7561 -121.9297 North 228 262 24,000  Level Oakland Center
Sat 05:28:23 PM 40.8325 -121.9172 North 232 267 24,000  Level Oakland Center
Sat 05:29:24 PM 40.8978 -121.9072 North 237 273 24,000  Level Oakland Center
Sat 05:30:25 PM 40.9647 -121.8947 North 241 277 24,000  Level Oakland Center
Sat 05:31:26 PM 41.0314 -121.8833 North 243 280 24,000  Level Oakland Center
Sat 05:32:27 PM 41.0972 -121.8736 North 239 275 24,000  Level Oakland Center
Sat 05:33:29 PM 41.1589 -121.8653 North 240 276 24,000  Level Oakland Center
Sat 05:33:52 PM 41.1844 -121.8586 11° North 239 275 24,000  Level Seattle Center
Sat 05:34:53 PM 41.2519 -121.8461 North 243 280 24,000  Level Seattle Center
Sat 05:35:53 PM 41.3169 -121.8353 North 239 275 24,000  Level Seattle Center
Sat 05:36:54 PM 41.3836 -121.8242 North 240 276 24,000  Level Seattle Center
Sat 05:37:55 PM 41.4497 -121.8122 North 239 275 24,000  Level Seattle Center
Sat 05:38:56 PM 41.5297 -121.7994 North 241 277 24,000  Level Seattle Center
Sat 05:39:56 PM 41.5967 -121.7878 North 242 278 24,000  Level Seattle Center
Sat 05:40:57 PM 41.6633 -121.7756 North 242 278 24,000  Level Seattle Center
Sat 05:41:58 PM 41.7300 -121.7647 North 242 278 24,000  Level Seattle Center
Sat 05:42:59 PM 41.7950 -121.7522 North 239 275 24,000  Level Seattle Center
Sat 05:44:00 PM 41.8614 -121.7422 North 239 275 24,000  Level Seattle Center
Sat 05:45:00 PM 41.9258 -121.7300 North 238 274 24,000  Level Seattle Center
Sat 05:46:01 PM 41.9900 -121.7178 North 238 274 24,000  Level Seattle Center
Sat 05:47:02 PM 42.0553 -121.7064 North 239 275 24,000  Level Seattle Center
Sat 05:48:03 PM 42.1203 -121.6964 North 239 275 24,000  Level Seattle Center
Sat 05:49:03 PM 42.1867 -121.6831 North 242 278 24,000  Level Seattle Center
Sat 05:50:04 PM 42.2506 -121.6719 North 237 273 24,000  Level Seattle Center
Sat 05:51:05 PM 42.3281 -121.6583 North 235 270 24,000  Level Seattle Center
Sat 05:52:06 PM 42.3931 -121.6458 North 237 273 24,000  Level Seattle Center
Sat 05:53:06 PM 42.4569 -121.6358 North 234 269 24,000  Level Seattle Center
Sat 05:54:07 PM 42.5208 -121.6236 North 233 268 24,000  Level Seattle Center
Sat 05:55:08 PM 42.5847 -121.6119 North 230 265 24,000  Level Seattle Center
Sat 05:56:09 PM 42.6500 -121.5992 North 236 272 24,000  Level Seattle Center
Sat 05:57:09 PM 42.7153 -121.5881 North 235 270 24,000  Level Seattle Center
Sat 05:58:10 PM 42.7794 -121.5761 North 233 268 24,000  Level Seattle Center
Sat 05:59:11 PM 42.8414 -121.5653 North 226 260 24,000  Level Seattle Center
Sat 06:00:11 PM 42.9036 -121.5544 North 225 259 24,000  Level Seattle Center
Sat 06:01:12 PM 42.9642 -121.5431 North 219 252 24,000  Level Seattle Center
Sat 06:02:13 PM 43.0253 -121.5314 North 219 252 24,000  Level Seattle Center
Sat 06:03:13 PM 43.0867 -121.5228 North 219 252 24,000  Level Seattle Center
Sat 06:04:14 PM 43.1456 -121.5111 North 218 251 24,000  Level Seattle Center
Sat 06:05:15 PM 43.2061 -121.4997 North 218 251 24,000  Level Seattle Center
Sat 06:06:15 PM 43.2647 -121.4883 North 215 247 24,000 -595 Level Seattle Center
Sat 06:07:16 PM 43.3228 -121.4775 North 212 244 22,800 -1,240 Descending Seattle Center
Sat 06:08:16 PM 43.3836 -121.4667 North 219 252 21,500 -1,339 Descending Seattle Center
Sat 06:09:17 PM 43.4486 -121.4525 North 233 268 20,100 -1,574 Descending Seattle Center
Sat 06:10:18 PM 43.5311 -121.4311 11° North 250 288 18,300 -1,623 Descending Seattle Center
Sat 06:11:19 PM 43.5997 -121.4031 16° North 249 287 16,800 -1,537 Descending Seattle Center
Sat 06:12:19 PM 43.6625 -121.3800 15° North 239 275 15,200 -1,636 Descending Seattle Center
Sat 06:13:20 PM 43.7217 -121.3564 16° North 226 260 13,500 -1,770 Descending Seattle Center
Sat 06:14:21 PM 43.7794 -121.3344 15° North 218 251 11,600 -1,736 Descending Seattle Center
Sat 06:15:21 PM 43.8381 -121.3119 15° North 218 251 10,000 -793 Descending Seattle Center
Sat 06:16:22 PM 43.8911 -121.2917 15° North 204 235 10,000  Level Seattle Center
Sat 06:17:22 PM 43.9425 -121.2708 16° North 195 224 10,000 -298 Level Seattle Center
Sat 06:18:23 PM 44.0000 -121.2725 359° North 203 234 9,400 -836 Descending Seattle Center
Sat 06:19:24 PM 44.0600 -121.2706 North 211 243 8,300 -1,140 Descending Seattle Center
Sat 06:20:24 PM 44.1158 -121.2644 North 206 237 7,100 -1,190 Descending Seattle Center
Sat 06:21:25 PM 44.1669 -121.2544 North 193 222 5,900 -984 Descending Seattle Center
Sat 06:22:26 PM 44.2092 -121.2389 15° North 166 191 5,100 -984 Descending Seattle Center
Sat 06:23:27 PM 44.2333 -121.2044 46° Northeast 139 160 3,900 -942 Descending Seattle Center
Sat 06:24:27 PM 44.2494 -121.1625 62° Northeast 129 148 3,200 -700 Descending Seattle Center

Login

Don't have an account? Register now (free) for customized features, flight alerts, and more!